createdAt,value
2022-11-15T00:00:17.702Z,4.28
2022-11-15T00:03:06.497Z,3.38
2022-11-15T00:05:55.205Z,3.75
2022-11-15T00:08:43.736Z,3.65
2022-11-15T00:11:34.542Z,4.55
2022-11-15T00:14:23.263Z,4.22
2022-11-15T00:17:11.659Z,3.20
2022-11-15T00:20:00.595Z,4.38
2022-11-15T00:22:49.641Z,4.40
2022-11-15T00:25:38.463Z,3.90
2022-11-15T00:28:30.551Z,4.38
2022-11-15T00:31:18.965Z,4.20
2022-11-15T00:34:07.685Z,3.40
2022-11-15T00:36:56.213Z,4.15
2022-11-15T00:39:45.002Z,3.47
2022-11-15T00:42:33.230Z,3.97
2022-11-15T00:45:24.388Z,4.00
2022-11-15T00:48:14.119Z,4.13
2022-11-15T00:51:03.052Z,4.15
2022-11-15T00:53:51.790Z,3.78
2022-11-15T00:56:40.751Z,3.63
2022-11-15T00:59:29.063Z,3.83
2022-11-15T01:02:19.893Z,4.25
2022-11-15T01:05:09.720Z,4.32
2022-11-15T01:07:58.348Z,4.45
2022-11-15T01:10:46.907Z,4.22
2022-11-15T01:13:36.808Z,4.28
2022-11-15T01:16:25.548Z,4.63
2022-11-15T01:19:16.583Z,4.50
2022-11-15T01:22:05.358Z,4.43
2022-11-15T01:24:54.149Z,4.85
2022-11-15T01:27:42.974Z,4.43
2022-11-15T01:30:31.413Z,4.90
2022-11-15T01:33:19.744Z,4.85
2022-11-15T01:36:11.906Z,4.72
2022-11-15T01:39:01.916Z,4.93
2022-11-15T01:41:50.578Z,4.80
2022-11-15T01:44:50.388Z,4.43
2022-11-15T01:47:40.771Z,4.15
2022-11-15T01:50:31.619Z,5.10
2022-11-15T01:53:25.232Z,4.90
2022-11-15T01:56:16.091Z,4.88
2022-11-15T01:59:07.068Z,4.68
2022-11-15T02:01:56.017Z,4.50
2022-11-15T02:04:46.619Z,4.63
2022-11-15T02:07:36.154Z,5.38
2022-11-15T02:10:28.900Z,5.07
2022-11-15T02:13:18.301Z,5.18
2022-11-15T02:16:13.654Z,4.75
2022-11-15T02:22:00.231Z,5.25
2022-11-15T02:25:09.441Z,5.47
2022-11-15T02:28:33.742Z,4.57
2022-11-15T02:31:29.356Z,5.13
2022-11-15T02:34:25.699Z,5.32
2022-11-15T02:37:20.985Z,5.57
2022-11-15T02:40:12.493Z,5.15
2022-11-15T02:43:19.622Z,5.43
2022-11-15T02:46:11.229Z,5.40
2022-11-15T02:49:02.608Z,4.93
2022-11-15T02:51:53.062Z,4.13
2022-11-15T02:54:41.790Z,4.75
2022-11-15T02:57:35.755Z,4.68
2022-11-15T03:00:25.361Z,4.80
2022-11-15T03:03:33.241Z,4.93
2022-11-15T03:06:34.622Z,5.15
2022-11-15T03:09:33.593Z,4.38
2022-11-15T03:12:26.808Z,5.00
2022-11-15T03:15:20.706Z,4.45
2022-11-15T03:18:16.077Z,3.80
2022-11-15T03:21:07.147Z,4.65
2022-11-15T03:23:59.039Z,3.60
2022-11-15T03:26:49.604Z,4.20
2022-11-15T03:29:42.771Z,4.32
2022-11-15T03:32:33.411Z,4.00
2022-11-15T03:35:23.433Z,3.88
2022-11-15T03:38:16.181Z,3.55
2022-11-15T03:41:09.719Z,3.65
2022-11-15T03:44:03.653Z,3.28
2022-11-15T03:46:54.151Z,3.45
2022-11-15T03:49:48.213Z,3.92
2022-11-15T03:52:38.350Z,4.03
2022-11-15T03:55:27.143Z,4.63
2022-11-15T03:58:18.507Z,3.72
2022-11-15T04:01:07.076Z,4.20
2022-11-15T04:03:55.950Z,3.72
2022-11-15T04:06:44.614Z,3.65
2022-11-15T04:09:33.382Z,3.13
2022-11-15T04:12:31.806Z,3.78
2022-11-15T04:15:25.023Z,2.90
2022-11-15T04:18:13.389Z,3.42
2022-11-15T04:21:14.394Z,3.72
2022-11-15T04:24:15.668Z,3.03
2022-11-15T04:27:04.851Z,3.60
2022-11-15T04:29:53.842Z,3.22
2022-11-15T04:32:45.008Z,3.42
2022-11-15T04:35:33.630Z,3.83
2022-11-15T04:38:22.269Z,4.18
2022-11-15T04:41:11.283Z,3.85
2022-11-15T04:43:59.777Z,3.95
2022-11-15T04:46:48.305Z,4.55
2022-11-15T04:49:39.727Z,3.58
2022-11-15T04:52:28.104Z,3.42
2022-11-15T04:55:17.243Z,3.20
2022-11-15T04:58:06.586Z,4.00
2022-11-15T05:00:55.047Z,4.15
2022-11-15T05:03:56.336Z,3.97
2022-11-15T05:06:47.582Z,4.15
2022-11-15T05:09:36.666Z,3.80
2022-11-15T05:12:25.270Z,3.60
2022-11-15T05:15:14.002Z,3.88
2022-11-15T05:18:03.249Z,3.13
2022-11-15T05:20:51.986Z,3.35
2022-11-15T05:23:43.762Z,3.50
2022-11-15T05:26:32.650Z,3.13
2022-11-15T05:29:21.215Z,3.60
2022-11-15T05:32:12.581Z,3.63
2022-11-15T05:35:01.083Z,2.47
2022-11-15T05:37:49.921Z,3.58
2022-11-15T05:40:41.063Z,3.25
2022-11-15T05:43:29.877Z,3.13
2022-11-15T05:46:18.872Z,3.45
2022-11-15T05:49:11.147Z,2.90
2022-11-15T05:52:01.025Z,3.65
2022-11-15T05:54:49.899Z,3.63
2022-11-15T05:57:41.491Z,3.00
2022-11-15T06:00:29.969Z,2.75
2022-11-15T06:03:18.574Z,3.65
2022-11-15T06:06:11.076Z,3.88
2022-11-15T06:09:02.376Z,3.58
2022-11-15T06:11:51.603Z,3.30
2022-11-15T06:17:07.281Z,3.47
2022-11-15T06:19:59.718Z,2.70
2022-11-15T06:22:48.327Z,3.85
2022-11-15T06:25:36.956Z,3.47
2022-11-15T06:28:25.386Z,2.75
2022-11-15T06:31:15.088Z,3.47
2022-11-15T06:34:06.419Z,3.47
2022-11-15T06:36:55.042Z,2.75
2022-11-15T06:39:43.922Z,3.05
2022-11-15T06:42:32.703Z,3.78
2022-11-15T06:45:21.405Z,3.33
2022-11-15T06:48:10.160Z,2.95
2022-11-15T06:51:03.032Z,3.17
2022-11-15T06:53:51.702Z,3.05
2022-11-15T06:56:40.478Z,3.13
2022-11-15T06:59:29.597Z,3.13
2022-11-15T07:02:18.274Z,3.50
2022-11-15T07:05:07.071Z,3.60
2022-11-15T07:07:59.993Z,3.03
2022-11-15T07:10:48.252Z,3.17
2022-11-15T07:13:38.410Z,3.50
2022-11-15T07:16:27.278Z,4.53
2022-11-15T07:19:15.672Z,3.05
2022-11-15T07:22:04.461Z,4.32
2022-11-15T07:24:55.607Z,4.68
2022-11-15T07:27:44.331Z,8.15
2022-11-15T07:30:33.569Z,5.63
2022-11-15T07:33:22.712Z,3.95
2022-11-15T07:36:12.910Z,4.53
2022-11-15T07:39:01.483Z,3.78
2022-11-15T07:42:12.744Z,4.35
2022-11-15T07:45:01.210Z,3.78
2022-11-15T07:47:50.002Z,3.75
2022-11-15T07:50:38.593Z,3.28
2022-11-15T07:53:27.184Z,4.47
2022-11-15T07:56:15.848Z,3.72
2022-11-15T07:59:07.353Z,3.35
2022-11-15T08:01:55.949Z,3.65
2022-11-15T08:04:44.903Z,3.00
2022-11-15T08:07:34.125Z,4.05
2022-11-15T08:10:22.786Z,3.92
2022-11-15T08:13:13.328Z,3.13
2022-11-15T08:16:06.583Z,3.63
2022-11-15T08:18:55.526Z,3.78
2022-11-15T08:21:44.131Z,4.35
2022-11-15T08:24:33.091Z,3.53
2022-11-15T08:27:21.525Z,3.65
2022-11-15T08:30:12.145Z,3.20
2022-11-15T08:33:03.336Z,3.10
2022-11-15T08:35:52.660Z,3.15
2022-11-15T08:38:41.376Z,3.80
2022-11-15T08:41:33.783Z,3.65
2022-11-15T08:44:26.054Z,3.88
2022-11-15T08:47:15.827Z,3.47
2022-11-15T08:50:07.256Z,3.08
2022-11-15T08:52:56.117Z,3.10
2022-11-15T08:55:44.943Z,3.33
2022-11-15T08:58:33.978Z,3.72
2022-11-15T09:01:24.692Z,3.47
2022-11-15T09:04:13.339Z,4.78
2022-11-15T09:07:04.357Z,3.45
2022-11-15T09:09:53.134Z,3.40
2022-11-15T09:12:42.146Z,4.43
2022-11-15T09:15:30.854Z,3.63
2022-11-15T09:18:22.317Z,3.30
2022-11-15T09:21:12.514Z,3.30
2022-11-15T09:24:05.355Z,4.53
2022-11-15T09:26:54.457Z,3.10
2022-11-15T09:29:43.370Z,3.08
2022-11-15T09:32:38.863Z,3.85
2022-11-15T09:35:27.690Z,3.58
2022-11-15T09:38:16.691Z,3.15
2022-11-15T09:41:48.549Z,2.92
2022-11-15T09:45:00.415Z,3.40
2022-11-15T09:48:13.515Z,2.05
2022-11-15T09:51:08.950Z,4.07
2022-11-15T09:54:30.248Z,3.03
2022-11-15T09:56:39.289Z,2.63
2022-11-15T09:59:25.537Z,3.28
2022-11-15T10:02:05.237Z,2.28
2022-11-15T10:04:36.059Z,2.58
2022-11-15T10:07:10.103Z,2.03
2022-11-15T10:09:45.328Z,2.97
2022-11-15T10:12:17.784Z,2.30
2022-11-15T10:14:54.843Z,2.97
2022-11-15T10:18:02.813Z,2.28
2022-11-15T10:20:36.933Z,2.10
2022-11-15T10:23:11.230Z,2.28
2022-11-15T10:28:17.327Z,2.67
2022-11-15T10:30:53.045Z,1.65
2022-11-15T10:33:37.343Z,1.75
2022-11-15T10:36:26.773Z,1.90
2022-11-15T10:39:02.238Z,1.50
2022-11-15T10:41:40.137Z,2.08
2022-11-15T10:44:22.908Z,1.67
2022-11-15T10:47:39.887Z,1.10
2022-11-15T10:50:30.039Z,1.40
2022-11-15T10:53:01.150Z,1.40
2022-11-15T10:55:33.592Z,1.52
2022-11-15T10:58:07.671Z,1.13
2022-11-15T11:03:35.098Z,1.05
2022-11-15T11:06:10.294Z,1.35
2022-11-15T11:08:40.572Z,1.05
2022-11-15T11:11:11.455Z,1.27
2022-11-15T11:13:42.923Z,1.13
2022-11-15T11:16:31.968Z,1.35
2022-11-15T11:19:09.419Z,1.15
2022-11-15T11:21:45.157Z,1.25
2022-11-15T11:24:19.497Z,0.98
2022-11-15T11:26:56.949Z,0.95
2022-11-15T11:29:42.503Z,2.75
2022-11-15T11:32:22.311Z,1.95
2022-11-15T11:35:04.309Z,1.23
2022-11-15T11:37:38.175Z,1.17
2022-11-15T11:42:43.670Z,1.23
2022-11-15T11:45:20.209Z,1.40
2022-11-15T11:47:52.337Z,1.77
2022-11-15T11:50:25.855Z,1.38
2022-11-15T11:53:04.015Z,0.80
2022-11-15T11:55:37.481Z,1.00
2022-11-15T11:58:15.248Z,1.33
2022-11-15T12:00:46.456Z,0.73
2022-11-15T12:03:18.759Z,1.30
2022-11-15T12:05:55.494Z,0.98
2022-11-15T12:08:39.637Z,1.08
2022-11-15T12:11:16.161Z,1.10
2022-11-15T12:13:47.291Z,0.73
2022-11-15T12:16:22.998Z,1.10
2022-11-15T12:18:54.107Z,1.17
2022-11-15T12:21:30.830Z,1.92
2022-11-15T12:24:07.853Z,1.08
2022-11-15T12:26:41.067Z,0.93
2022-11-15T12:29:16.594Z,0.80
2022-11-15T12:31:52.080Z,0.80
2022-11-15T12:34:37.208Z,0.93
2022-11-15T12:37:30.172Z,0.82
2022-11-15T12:40:21.628Z,1.02
2022-11-15T12:43:06.975Z,1.00
2022-11-15T12:45:38.427Z,0.93
2022-11-15T12:48:29.813Z,0.88
2022-11-15T12:51:02.095Z,0.57
2022-11-15T12:53:34.125Z,0.88
2022-11-15T12:56:25.520Z,0.90
2022-11-15T12:58:57.944Z,0.52
2022-11-15T13:02:09.325Z,0.90
2022-11-15T13:04:39.331Z,0.65
2022-11-15T13:07:11.229Z,0.80
2022-11-15T13:09:58.788Z,0.88
2022-11-15T13:13:04.627Z,1.23
2022-11-15T13:15:43.240Z,0.68
2022-11-15T13:18:30.161Z,0.60
2022-11-15T13:21:02.637Z,0.77
2022-11-15T13:23:33.469Z,0.98
2022-11-15T13:26:13.750Z,0.77
2022-11-15T13:28:48.578Z,0.70
2022-11-15T13:31:26.074Z,0.90
2022-11-15T13:33:58.023Z,1.10
2022-11-15T13:36:29.919Z,0.68
2022-11-15T13:39:01.803Z,1.20
2022-11-15T13:41:33.763Z,1.08
2022-11-15T13:44:05.166Z,1.65
2022-11-15T13:46:38.230Z,1.15
2022-11-15T13:49:12.449Z,0.70
2022-11-15T13:51:44.237Z,0.82
2022-11-15T13:54:23.032Z,0.70
2022-11-15T13:56:57.339Z,1.02
2022-11-15T13:59:29.314Z,0.95
2022-11-15T14:02:03.169Z,0.80
2022-11-15T14:04:35.249Z,1.10
2022-11-15T14:07:06.285Z,0.93
2022-11-15T14:09:41.243Z,1.23
2022-11-15T14:12:26.668Z,1.10
2022-11-15T14:14:57.355Z,1.23
2022-11-15T14:17:45.731Z,1.13
2022-11-15T14:20:29.544Z,2.13
2022-11-15T14:23:00.532Z,1.85
2022-11-15T14:25:31.414Z,2.17
2022-11-15T14:28:16.330Z,1.95
2022-11-15T14:30:48.318Z,1.13
2022-11-15T14:33:24.449Z,2.03
2022-11-15T14:35:55.529Z,1.73
2022-11-15T14:38:25.980Z,1.52
2022-11-15T14:40:57.754Z,1.73
2022-11-15T14:43:28.534Z,1.40
2022-11-15T14:45:58.765Z,1.08
2022-11-15T14:48:31.878Z,1.38
2022-11-15T14:51:02.402Z,1.90
2022-11-15T14:53:32.364Z,1.52
2022-11-15T14:56:02.357Z,1.33
2022-11-15T14:58:32.726Z,1.20
2022-11-15T15:01:03.553Z,1.35
2022-11-15T15:03:36.399Z,1.10
2022-11-15T15:06:06.671Z,1.27
2022-11-15T15:08:36.996Z,1.38
2022-11-15T15:11:09.317Z,1.05
2022-11-15T15:13:39.590Z,1.65
2022-11-15T15:16:10.214Z,1.33
2022-11-15T15:18:43.088Z,1.33
2022-11-15T15:21:23.672Z,1.50
2022-11-15T15:23:55.057Z,1.20
2022-11-15T15:26:26.459Z,1.27
2022-11-15T15:28:56.802Z,1.33
2022-11-15T15:31:27.079Z,1.25
2022-11-15T15:33:59.648Z,1.40
2022-11-15T15:36:29.729Z,1.58
2022-11-15T15:39:00.013Z,1.27
2022-11-15T15:41:30.195Z,1.30
2022-11-15T15:44:00.237Z,1.50
2022-11-15T15:46:30.319Z,2.05
2022-11-15T15:49:02.850Z,1.67
2022-11-15T15:51:32.844Z,2.40
2022-11-15T15:54:03.130Z,2.50
2022-11-15T15:56:33.406Z,2.22
2022-11-15T15:59:03.417Z,2.05
2022-11-15T16:01:33.788Z,2.97
2022-11-15T16:04:06.674Z,2.90
2022-11-15T16:06:39.252Z,2.47
2022-11-15T16:09:17.794Z,2.20
2022-11-15T16:11:49.269Z,2.60
2022-11-15T16:14:19.385Z,1.85
2022-11-15T16:16:51.967Z,2.28
2022-11-15T16:19:24.851Z,1.92
2022-11-15T16:21:55.549Z,2.17
2022-11-15T16:24:26.375Z,2.35
2022-11-15T16:26:56.872Z,2.15
2022-11-15T16:29:27.195Z,3.03
2022-11-15T16:31:57.446Z,3.38
2022-11-15T16:34:32.985Z,4.13
2022-11-15T16:37:05.204Z,5.13
2022-11-15T16:39:36.110Z,10.00
2022-11-15T16:42:06.807Z,5.82
2022-11-15T16:44:37.078Z,3.67
2022-11-15T16:47:07.461Z,4.80
2022-11-15T16:49:47.943Z,3.42
2022-11-15T16:52:21.326Z,4.00
2022-11-15T16:54:51.829Z,7.68
2022-11-15T16:57:22.106Z,9.35
2022-11-15T16:59:52.511Z,7.50
2022-11-15T17:02:22.750Z,7.70
2022-11-15T17:04:55.436Z,5.00
2022-11-15T17:07:25.715Z,5.03
2022-11-15T17:09:56.066Z,4.57
2022-11-15T17:12:26.339Z,4.13
2022-11-15T17:14:56.693Z,4.57
2022-11-15T17:17:27.052Z,4.38
2022-11-15T17:19:59.975Z,5.32
2022-11-15T17:22:30.004Z,5.20
2022-11-15T17:24:59.972Z,5.72
2022-11-15T17:27:30.250Z,7.38
2022-11-15T17:30:00.283Z,6.53
2022-11-15T17:32:30.304Z,5.32
2022-11-15T17:35:03.172Z,5.05
2022-11-15T17:37:33.440Z,4.05
2022-11-15T17:40:03.718Z,4.32
2022-11-15T17:42:34.000Z,4.18
2022-11-15T17:45:09.627Z,4.00
2022-11-15T17:47:40.460Z,4.68
2022-11-15T17:50:13.569Z,4.20
2022-11-15T17:52:43.789Z,4.95
2022-11-15T17:55:14.132Z,4.35
2022-11-15T17:57:44.406Z,4.20
2022-11-15T18:00:15.354Z,4.28
2022-11-15T18:02:45.706Z,5.03
2022-11-15T18:05:18.588Z,4.32
2022-11-15T18:07:48.588Z,4.10
2022-11-15T18:10:19.165Z,4.10
2022-11-15T18:12:49.399Z,4.25
2022-11-15T18:15:21.388Z,4.53
2022-11-15T18:17:51.460Z,4.30
2022-11-15T18:20:28.849Z,4.13
2022-11-15T18:22:59.369Z,4.35
2022-11-15T18:25:29.764Z,4.75
2022-11-15T18:28:00.032Z,5.55
2022-11-15T18:30:30.315Z,6.95
2022-11-15T18:33:00.422Z,5.97
2022-11-15T18:35:33.575Z,4.55
2022-11-15T18:38:03.770Z,5.03
2022-11-15T18:40:38.131Z,7.53
2022-11-15T18:45:40.852Z,6.57
2022-11-15T18:48:11.120Z,7.22
2022-11-15T18:50:44.396Z,6.28
2022-11-15T18:53:15.001Z,6.20
2022-11-15T18:55:45.586Z,5.03
2022-11-15T18:58:16.897Z,5.55
2022-11-15T19:00:47.166Z,5.65
2022-11-15T19:03:23.613Z,5.47
2022-11-15T19:06:03.966Z,5.35
2022-11-15T19:08:35.532Z,5.53
2022-11-15T19:11:06.833Z,6.60
2022-11-15T19:13:37.237Z,5.80
2022-11-15T19:16:08.296Z,5.25
2022-11-15T19:18:38.580Z,6.25
2022-11-15T19:21:14.838Z,5.43
2022-11-15T19:23:46.860Z,4.90
2022-11-15T19:26:18.213Z,5.05
2022-11-15T19:28:49.103Z,5.53
2022-11-15T19:31:20.324Z,4.85
2022-11-15T19:33:50.895Z,5.05
2022-11-15T19:36:25.874Z,5.57
2022-11-15T19:38:56.419Z,5.80
2022-11-15T19:41:27.387Z,6.05
2022-11-15T19:43:57.690Z,5.68
2022-11-15T19:46:28.345Z,5.78
2022-11-15T19:48:58.838Z,5.95
2022-11-15T19:51:32.529Z,5.68
2022-11-15T19:54:06.754Z,6.20
2022-11-15T19:56:37.612Z,6.10
2022-11-15T19:59:08.337Z,5.53
2022-11-15T20:01:39.869Z,5.22
2022-11-15T20:04:10.957Z,6.00
2022-11-15T20:06:44.503Z,5.22
2022-11-15T20:09:16.845Z,6.10
2022-11-15T20:11:47.473Z,6.20
2022-11-15T20:14:17.948Z,6.00
2022-11-15T20:16:53.961Z,6.75
2022-11-15T20:19:24.691Z,6.70
2022-11-15T20:21:57.741Z,6.32
2022-11-15T20:24:28.321Z,7.43
2022-11-15T20:26:58.572Z,6.55
2022-11-15T20:29:28.849Z,5.60
2022-11-15T20:31:59.071Z,5.88
2022-11-15T20:34:29.290Z,6.03
2022-11-15T20:37:01.811Z,5.65
2022-11-15T20:39:32.052Z,5.88
2022-11-15T20:42:02.274Z,5.70
2022-11-15T20:44:32.615Z,5.57
2022-11-15T20:47:02.819Z,6.03
2022-11-15T20:49:33.104Z,6.28
2022-11-15T20:52:06.033Z,5.75
2022-11-15T20:54:36.271Z,6.20
2022-11-15T20:57:06.743Z,6.30
2022-11-15T20:59:37.394Z,6.32
2022-11-15T21:02:07.832Z,4.63
2022-11-15T21:04:38.155Z,6.30
2022-11-15T21:07:11.088Z,6.05
2022-11-15T21:09:53.778Z,6.75
2022-11-15T21:12:24.089Z,6.38
2022-11-15T21:14:54.295Z,6.53
2022-11-15T21:17:24.613Z,7.78
2022-11-15T21:19:54.844Z,6.63
2022-11-15T21:22:27.638Z,7.13
2022-11-15T21:25:00.252Z,6.03
2022-11-15T21:27:30.535Z,5.18
2022-11-15T21:30:00.734Z,6.07
2022-11-15T21:32:31.842Z,6.57
2022-11-15T21:35:02.160Z,6.00
2022-11-15T21:37:35.046Z,5.57
2022-11-15T21:40:05.285Z,6.07
2022-11-15T21:42:35.527Z,6.45
2022-11-15T21:45:05.970Z,7.53
2022-11-15T21:47:36.185Z,7.50
2022-11-15T21:50:06.465Z,9.32
2022-11-15T21:52:39.371Z,7.88
2022-11-15T21:55:09.838Z,6.25
2022-11-15T21:57:40.177Z,6.43
2022-11-15T22:00:23.615Z,5.65
2022-11-15T22:02:53.855Z,6.00
2022-11-15T22:05:24.053Z,5.90
2022-11-15T22:07:56.549Z,6.32
2022-11-15T22:10:26.762Z,6.47
2022-11-15T22:12:56.968Z,6.70
2022-11-15T22:15:27.188Z,6.93
2022-11-15T22:18:03.404Z,6.38
2022-11-15T22:20:49.015Z,5.63
2022-11-15T22:23:21.761Z,6.35
2022-11-15T22:25:52.192Z,6.20
2022-11-15T22:28:22.899Z,6.05
2022-11-15T22:30:54.878Z,6.07
2022-11-15T22:33:26.650Z,6.25
2022-11-15T22:35:57.181Z,6.40
2022-11-15T22:38:30.822Z,6.78
2022-11-15T22:41:01.344Z,6.22
2022-11-15T22:43:31.833Z,6.90
2022-11-15T22:46:03.231Z,6.68
2022-11-15T22:48:35.328Z,6.72
2022-11-15T22:51:05.905Z,6.72
2022-11-15T22:53:38.884Z,6.75
2022-11-15T22:56:09.565Z,6.72
2022-11-15T22:58:39.946Z,6.88
2022-11-15T23:01:10.491Z,7.70
2022-11-15T23:03:40.904Z,7.38
2022-11-15T23:06:11.684Z,7.30
2022-11-15T23:08:44.360Z,7.55
2022-11-15T23:11:27.360Z,7.68
2022-11-15T23:13:57.757Z,7.57
2022-11-15T23:16:37.091Z,6.95
2022-11-15T23:19:09.104Z,7.57
2022-11-15T23:21:53.229Z,8.15
2022-11-15T23:24:26.348Z,7.45
2022-11-15T23:26:58.411Z,8.48
2022-11-15T23:29:30.077Z,7.47
2022-11-15T23:32:13.066Z,8.45
2022-11-15T23:34:45.343Z,9.77
2022-11-15T23:37:17.634Z,7.78
2022-11-15T23:39:50.416Z,7.90
2022-11-15T23:42:22.230Z,7.38
2022-11-15T23:44:53.106Z,7.20
2022-11-15T23:47:23.486Z,8.50
2022-11-15T23:49:53.891Z,7.65
2022-11-15T23:52:25.416Z,6.90
2022-11-15T23:54:58.179Z,8.13
2022-11-15T23:57:28.494Z,7.85
